createdAt,value
2023-05-01T00:00:10.305Z,10.87
2023-05-01T00:02:42.213Z,11.90
2023-05-01T00:05:11.832Z,12.53
2023-05-01T00:07:40.358Z,12.07
2023-05-01T00:10:09.357Z,13.37
2023-05-01T00:12:39.169Z,13.57
2023-05-01T00:15:08.468Z,12.90
2023-05-01T00:17:37.026Z,11.93
2023-05-01T00:20:06.443Z,11.17
2023-05-01T00:22:34.821Z,11.60
2023-05-01T00:25:03.755Z,12.07
2023-05-01T00:27:32.238Z,11.57
2023-05-01T00:30:01.994Z,12.47
2023-05-01T00:32:30.690Z,12.80
2023-05-01T00:34:59.098Z,11.60
2023-05-01T00:37:27.650Z,10.63
2023-05-01T00:39:56.619Z,11.30
2023-05-01T00:42:25.571Z,11.20
2023-05-01T00:44:54.016Z,11.20
2023-05-01T00:47:23.763Z,11.40
2023-05-01T00:49:54.317Z,10.80
2023-05-01T00:52:24.714Z,11.67
2023-05-01T00:54:53.176Z,11.60
2023-05-01T00:57:22.061Z,12.03
2023-05-01T00:59:50.645Z,12.43
2023-05-01T01:02:19.099Z,11.57
2023-05-01T01:04:49.857Z,12.40
2023-05-01T01:07:25.128Z,12.13
2023-05-01T01:10:04.569Z,12.53
2023-05-01T01:12:40.163Z,12.77
2023-05-01T01:15:16.206Z,12.83
2023-05-01T01:17:53.175Z,12.83
2023-05-01T01:20:33.523Z,12.30
2023-05-01T01:23:26.119Z,12.47
2023-05-01T01:26:22.257Z,12.73
2023-05-01T01:29:22.540Z,12.17
2023-05-01T01:32:05.962Z,12.60
2023-05-01T01:34:42.035Z,12.37
2023-05-01T01:37:18.032Z,12.20
2023-05-01T01:39:54.548Z,12.60
2023-05-01T01:42:29.262Z,12.60
2023-05-01T01:45:02.824Z,13.23
2023-05-01T01:47:34.306Z,13.53
2023-05-01T01:50:08.399Z,13.17
2023-05-01T01:52:38.729Z,13.30
2023-05-01T01:55:12.300Z,12.50
2023-05-01T01:57:44.352Z,12.33
2023-05-01T02:00:14.868Z,12.87
2023-05-01T02:02:49.350Z,12.53
2023-05-01T02:05:21.752Z,12.93
2023-05-01T02:07:52.495Z,13.23
2023-05-01T02:10:23.587Z,12.13
2023-05-01T02:12:54.719Z,13.00
2023-05-01T02:15:24.550Z,13.90
2023-05-01T02:17:54.398Z,14.10
2023-05-01T02:20:24.614Z,12.80
2023-05-01T02:22:54.172Z,13.93
2023-05-01T02:25:23.019Z,13.83
2023-05-01T02:28:01.316Z,14.70
2023-05-01T02:30:29.834Z,14.13
2023-05-01T02:32:58.691Z,12.83
2023-05-01T02:35:28.823Z,13.50
2023-05-01T02:37:57.406Z,13.10
2023-05-01T02:40:26.133Z,12.80
2023-05-01T02:42:55.193Z,13.37
2023-05-01T02:45:26.935Z,13.10
2023-05-01T02:48:00.586Z,12.97
2023-05-01T02:50:32.342Z,14.17
2023-05-01T02:53:01.655Z,13.47
2023-05-01T02:55:40.551Z,13.33
2023-05-01T02:58:08.954Z,13.40
2023-05-01T03:00:37.404Z,13.00
2023-05-01T03:03:06.103Z,12.53
2023-05-01T03:05:36.492Z,13.20
2023-05-01T03:08:05.325Z,14.00
2023-05-01T03:10:33.788Z,13.27
2023-05-01T03:13:02.249Z,13.17
2023-05-01T03:15:30.707Z,14.00
2023-05-01T03:17:59.140Z,13.20
2023-05-01T03:20:27.710Z,14.23
2023-05-01T03:22:59.442Z,13.90
2023-05-01T03:25:27.905Z,14.50
2023-05-01T03:27:56.493Z,13.37
2023-05-01T03:30:25.027Z,13.17
2023-05-01T03:32:56.681Z,13.17
2023-05-01T03:35:31.556Z,12.90
2023-05-01T03:38:02.256Z,13.37
2023-05-01T03:41:02.656Z,14.20
2023-05-01T03:44:06.584Z,14.70
2023-05-01T03:46:39.835Z,15.40
2023-05-01T03:49:10.473Z,14.40
2023-05-01T03:51:48.190Z,15.00
2023-05-01T03:54:18.135Z,14.30
2023-05-01T03:57:12.538Z,14.00
2023-05-01T03:59:43.849Z,14.17
2023-05-01T04:02:13.807Z,15.77
2023-05-01T04:04:43.393Z,14.33
2023-05-01T04:07:11.855Z,13.20
2023-05-01T04:09:41.677Z,14.73
2023-05-01T04:12:10.801Z,13.50
2023-05-01T04:14:39.272Z,13.70
2023-05-01T04:17:07.788Z,12.80
2023-05-01T04:19:38.479Z,13.87
2023-05-01T04:22:07.103Z,13.27
2023-05-01T04:24:37.726Z,12.90
2023-05-01T04:27:07.558Z,12.90
2023-05-01T04:29:36.122Z,13.43
2023-05-01T04:32:04.920Z,13.53
2023-05-01T04:34:33.271Z,13.50
2023-05-01T04:37:03.140Z,13.23
2023-05-01T04:39:31.526Z,13.27
2023-05-01T04:42:00.154Z,13.47
2023-05-01T04:44:30.885Z,13.20
2023-05-01T04:46:59.973Z,13.40
2023-05-01T04:49:28.569Z,13.97
2023-05-01T04:51:57.014Z,13.47
2023-05-01T04:54:30.003Z,13.10
2023-05-01T04:56:58.469Z,12.23
2023-05-01T04:59:26.938Z,11.83
2023-05-01T05:01:58.570Z,12.53
2023-05-01T05:04:27.246Z,12.47
2023-05-01T05:06:56.422Z,13.43
2023-05-01T05:09:34.030Z,13.57
2023-05-01T05:12:04.690Z,12.37
2023-05-01T05:14:33.882Z,12.40
2023-05-01T05:17:03.768Z,11.57
2023-05-01T05:19:32.332Z,12.67
2023-05-01T05:22:02.876Z,12.03
2023-05-01T05:24:34.141Z,11.73
2023-05-01T05:27:02.863Z,10.63
2023-05-01T05:29:31.248Z,10.70
2023-05-01T05:31:59.836Z,10.77
2023-05-01T05:34:29.616Z,10.50
2023-05-01T05:36:57.975Z,11.00
2023-05-01T05:39:27.382Z,10.97
2023-05-01T05:41:55.768Z,11.77
2023-05-01T05:44:24.628Z,10.80
2023-05-01T05:46:53.089Z,10.83
2023-05-01T05:49:31.290Z,10.73
2023-05-01T05:51:59.617Z,11.03
2023-05-01T05:54:28.303Z,11.50
2023-05-01T05:56:56.752Z,10.87
2023-05-01T05:59:25.294Z,11.10
2023-05-01T06:01:53.732Z,10.80
2023-05-01T06:04:22.089Z,11.63
2023-05-01T06:06:52.286Z,10.90
2023-05-01T06:09:20.832Z,10.60
2023-05-01T06:11:49.524Z,10.60
2023-05-01T06:14:19.180Z,10.57
2023-05-01T06:16:47.898Z,10.40
2023-05-01T06:19:16.331Z,9.43
2023-05-01T06:21:47.052Z,9.90
2023-05-01T06:24:17.441Z,10.03
2023-05-01T06:26:50.876Z,8.20
2023-05-01T06:29:19.375Z,9.47
2023-05-01T06:31:48.006Z,9.43
2023-05-01T06:34:16.942Z,9.90
2023-05-01T06:36:53.366Z,9.27
2023-05-01T06:39:23.297Z,9.70
2023-05-01T06:41:51.794Z,9.43
2023-05-01T06:44:32.746Z,10.63
2023-05-01T06:47:03.386Z,8.93
2023-05-01T06:49:31.836Z,11.70
2023-05-01T06:52:00.218Z,9.43
2023-05-01T06:54:29.986Z,9.30
2023-05-01T06:56:58.468Z,9.97
2023-05-01T06:59:26.804Z,10.43
2023-05-01T07:01:55.315Z,10.47
2023-05-01T07:04:23.965Z,10.73
2023-05-01T07:06:52.664Z,10.47
2023-05-01T07:09:21.412Z,10.60
2023-05-01T07:11:51.015Z,11.40
2023-05-01T07:14:19.493Z,10.25
2023-05-01T07:16:48.237Z,11.40
2023-05-01T07:19:16.644Z,10.10
2023-05-01T07:21:45.044Z,10.10
2023-05-01T07:24:13.555Z,11.07
2023-05-01T07:26:42.021Z,11.93
2023-05-01T07:29:12.067Z,9.43
2023-05-01T07:31:42.253Z,11.27
2023-05-01T07:34:10.798Z,10.07
2023-05-01T07:36:39.250Z,11.18
2023-05-01T07:39:07.805Z,10.32
2023-05-01T07:41:36.268Z,12.85
2023-05-01T07:44:04.870Z,10.15
2023-05-01T07:46:35.281Z,8.80
2023-05-01T07:49:04.327Z,9.30
2023-05-01T07:51:33.408Z,9.77
2023-05-01T07:54:04.946Z,10.73
2023-05-01T07:56:33.452Z,9.43
2023-05-01T07:59:01.849Z,10.73
2023-05-01T08:01:30.296Z,10.23
2023-05-01T08:04:00.070Z,10.57
2023-05-01T08:06:29.134Z,12.37
2023-05-01T08:08:57.505Z,10.83
2023-05-01T08:11:26.651Z,14.70
2023-05-01T08:13:55.087Z,15.80
2023-05-01T08:16:23.533Z,11.45
2023-05-01T08:18:51.967Z,10.70
2023-05-01T08:21:21.608Z,10.60
2023-05-01T08:23:51.169Z,9.23
2023-05-01T08:26:21.918Z,10.95
2023-05-01T08:28:51.020Z,9.50
2023-05-01T08:31:21.288Z,8.63
2023-05-01T08:33:49.804Z,9.50
2023-05-01T08:36:19.495Z,9.68
2023-05-01T08:38:51.082Z,9.25
2023-05-01T08:41:23.945Z,9.18
2023-05-01T08:43:52.394Z,9.67
2023-05-01T08:46:27.341Z,8.20
2023-05-01T08:48:59.592Z,8.68
2023-05-01T08:51:28.984Z,8.85
2023-05-01T08:54:00.680Z,8.48
2023-05-01T08:56:31.674Z,8.90
2023-05-01T08:59:03.398Z,8.50
2023-05-01T09:01:32.896Z,9.57
2023-05-01T09:04:04.514Z,10.60
2023-05-01T09:06:33.529Z,9.13
2023-05-01T09:09:03.418Z,8.73
2023-05-01T09:11:31.919Z,8.23
2023-05-01T09:14:02.657Z,8.63
2023-05-01T09:16:31.494Z,8.70
2023-05-01T09:19:00.160Z,8.15
2023-05-01T09:21:31.809Z,8.80
2023-05-01T09:24:00.333Z,7.75
2023-05-01T09:26:30.042Z,7.80
2023-05-01T09:28:59.737Z,8.98
2023-05-01T09:31:32.886Z,8.52
2023-05-01T09:34:02.914Z,8.82
2023-05-01T09:36:33.107Z,8.57
2023-05-01T09:39:02.749Z,8.68
2023-05-01T09:41:33.555Z,7.90
2023-05-01T09:44:02.683Z,8.90
2023-05-01T09:46:44.079Z,8.38
2023-05-01T09:49:13.114Z,8.85
2023-05-01T09:51:41.569Z,8.75
2023-05-01T09:54:21.858Z,7.70
2023-05-01T09:56:51.559Z,8.05
2023-05-01T09:59:21.875Z,8.25
2023-05-01T10:01:50.958Z,8.27
2023-05-01T10:04:30.427Z,8.00
2023-05-01T10:06:59.012Z,8.00
2023-05-01T10:09:31.070Z,8.52
2023-05-01T10:12:01.173Z,8.40
2023-05-01T10:14:30.545Z,9.00
2023-05-01T10:16:59.481Z,8.18
2023-05-01T10:19:27.980Z,8.60
2023-05-01T10:21:56.512Z,8.15
2023-05-01T10:24:25.292Z,8.50
2023-05-01T10:26:54.632Z,8.07
2023-05-01T10:29:25.773Z,8.13
2023-05-01T10:31:54.381Z,8.70
2023-05-01T10:34:27.032Z,8.82
2023-05-01T10:37:00.359Z,8.65
2023-05-01T10:39:32.650Z,10.38
2023-05-01T10:42:05.618Z,9.43
2023-05-01T10:44:36.013Z,9.27
2023-05-01T10:47:42.933Z,8.57
2023-05-01T10:50:12.758Z,8.73
2023-05-01T10:53:20.312Z,8.38
2023-05-01T10:55:51.108Z,8.80
2023-05-01T10:58:57.208Z,9.23
2023-05-01T11:01:37.980Z,9.00
2023-05-01T11:04:09.296Z,8.55
2023-05-01T11:06:38.329Z,8.48
2023-05-01T11:09:38.814Z,8.35
2023-05-01T11:12:08.079Z,8.07
2023-05-01T11:15:08.489Z,8.00
2023-05-01T11:17:51.028Z,8.38
2023-05-01T11:21:02.338Z,8.43
2023-05-01T11:23:30.945Z,8.07
2023-05-01T11:26:08.413Z,8.75
2023-05-01T11:28:39.252Z,7.38
2023-05-01T11:31:07.820Z,7.50
2023-05-01T11:33:37.762Z,8.55
2023-05-01T11:36:06.746Z,7.70
2023-05-01T11:38:35.301Z,7.85
2023-05-01T11:41:05.437Z,7.70
2023-05-01T11:43:33.899Z,8.48
2023-05-01T11:46:05.304Z,7.15
2023-05-01T11:48:34.151Z,7.55
2023-05-01T11:51:14.114Z,8.27
2023-05-01T11:53:42.542Z,8.15
2023-05-01T11:56:27.418Z,8.25
2023-05-01T11:58:57.788Z,8.25
2023-05-01T12:01:36.237Z,8.52
2023-05-01T12:04:05.415Z,8.25
2023-05-01T12:06:43.682Z,8.55
2023-05-01T12:09:16.395Z,8.13
2023-05-01T12:11:45.080Z,7.78
2023-05-01T12:14:15.623Z,8.35
2023-05-01T12:16:44.240Z,8.10
2023-05-01T12:19:15.114Z,8.13
2023-05-01T12:21:44.933Z,8.52
2023-05-01T12:24:16.472Z,8.63
2023-05-01T12:26:45.620Z,8.10
2023-05-01T12:29:14.102Z,8.15
2023-05-01T12:31:48.373Z,6.68
2023-05-01T12:34:16.908Z,7.97
2023-05-01T12:36:55.165Z,8.25
2023-05-01T12:39:24.524Z,8.00
2023-05-01T12:41:53.221Z,8.43
2023-05-01T12:44:23.786Z,8.70
2023-05-01T12:46:57.814Z,9.07
2023-05-01T12:49:26.773Z,7.90
2023-05-01T12:51:58.860Z,7.78
2023-05-01T12:54:30.338Z,7.65
2023-05-01T12:57:07.940Z,8.13
2023-05-01T12:59:38.109Z,8.18
2023-05-01T13:02:08.560Z,8.65
2023-05-01T13:04:37.388Z,8.13
2023-05-01T13:07:13.409Z,7.78
2023-05-01T13:09:52.141Z,8.30
2023-05-01T13:12:21.167Z,8.13
2023-05-01T13:14:50.109Z,8.57
2023-05-01T13:17:25.606Z,8.13
2023-05-01T13:19:57.853Z,8.55
2023-05-01T13:22:34.999Z,8.20
2023-05-01T13:25:05.052Z,8.50
2023-05-01T13:27:33.795Z,8.35
2023-05-01T13:30:02.733Z,7.80
2023-05-01T13:32:31.500Z,9.05
2023-05-01T13:35:02.653Z,8.55
2023-05-01T13:37:31.109Z,8.75
2023-05-01T13:40:01.146Z,8.48
2023-05-01T13:42:29.755Z,7.88
2023-05-01T13:45:00.205Z,8.15
2023-05-01T13:47:29.056Z,8.02
2023-05-01T13:49:58.148Z,8.93
2023-05-01T13:52:26.939Z,8.18
2023-05-01T13:54:58.601Z,8.02
2023-05-01T13:57:28.856Z,7.97
2023-05-01T13:59:57.337Z,7.28
2023-05-01T14:02:29.189Z,8.18
2023-05-01T14:05:00.141Z,7.85
2023-05-01T14:07:29.465Z,8.18
2023-05-01T14:09:59.871Z,8.70
2023-05-01T14:12:32.028Z,8.98
2023-05-01T14:15:01.951Z,8.65
2023-05-01T14:17:33.224Z,8.70
2023-05-01T14:20:02.375Z,8.10
2023-05-01T14:22:31.481Z,7.60
2023-05-01T14:25:00.172Z,8.70
2023-05-01T14:27:30.323Z,7.72
2023-05-01T14:29:58.756Z,7.80
2023-05-01T14:32:28.440Z,8.47
2023-05-01T14:34:57.560Z,7.75
2023-05-01T14:37:26.303Z,8.82
2023-05-01T14:39:54.661Z,8.38
2023-05-01T14:42:22.949Z,8.25
2023-05-01T14:44:52.663Z,9.27
2023-05-01T14:47:22.862Z,8.80
2023-05-01T14:49:54.533Z,9.03
2023-05-01T14:52:23.322Z,8.67
2023-05-01T14:54:53.301Z,8.17
2023-05-01T14:57:21.905Z,8.88
2023-05-01T14:59:50.295Z,8.97
2023-05-01T15:02:20.265Z,10.90
2023-05-01T15:04:48.979Z,17.03
2023-05-01T15:07:17.389Z,12.10
2023-05-01T15:09:46.916Z,12.20
2023-05-01T15:12:15.595Z,9.47
2023-05-01T15:14:44.312Z,11.23
2023-05-01T15:17:12.681Z,9.90
2023-05-01T15:19:42.470Z,8.77
2023-05-01T15:22:10.900Z,8.60
2023-05-01T15:24:39.439Z,12.93
2023-05-01T15:27:08.447Z,9.70
2023-05-01T15:29:36.998Z,9.10
2023-05-01T15:32:12.367Z,8.77
2023-05-01T15:34:42.960Z,10.33
2023-05-01T15:37:11.763Z,10.00
2023-05-01T15:39:40.478Z,10.33
2023-05-01T15:42:09.001Z,10.50
2023-05-01T15:44:37.423Z,8.83
2023-05-01T15:47:05.879Z,8.20
2023-05-01T15:49:34.317Z,8.27
2023-05-01T15:52:04.250Z,8.67
2023-05-01T15:54:32.762Z,7.93
2023-05-01T15:57:03.287Z,7.90
2023-05-01T15:59:32.122Z,9.80
2023-05-01T16:02:00.898Z,8.73
2023-05-01T16:04:29.411Z,8.80
2023-05-01T16:06:57.889Z,9.43
2023-05-01T16:09:32.029Z,9.60
2023-05-01T16:12:03.443Z,9.97
2023-05-01T16:14:32.324Z,9.33
2023-05-01T16:17:01.697Z,8.97
2023-05-01T16:19:30.953Z,9.13
2023-05-01T16:22:00.188Z,9.17
2023-05-01T16:24:32.333Z,9.07
2023-05-01T16:27:01.149Z,10.00
2023-05-01T16:29:29.934Z,9.73
2023-05-01T16:31:58.496Z,8.53
2023-05-01T16:34:28.543Z,8.67
2023-05-01T16:36:57.262Z,9.43
2023-05-01T16:39:25.796Z,9.30
2023-05-01T16:41:56.067Z,9.53
2023-05-01T16:44:24.656Z,8.63
2023-05-01T16:46:55.629Z,9.10
2023-05-01T16:49:25.214Z,9.50
2023-05-01T16:51:57.013Z,10.27
2023-05-01T16:54:32.007Z,8.73
2023-05-01T16:57:03.279Z,8.30
2023-05-01T16:59:32.567Z,8.53
2023-05-01T17:02:01.081Z,8.27
2023-05-01T17:04:30.377Z,8.40
2023-05-01T17:06:58.778Z,8.40
2023-05-01T17:09:27.743Z,8.90
2023-05-01T17:11:59.111Z,9.87
2023-05-01T17:14:30.541Z,8.57
2023-05-01T17:16:59.691Z,8.97
2023-05-01T17:19:28.117Z,9.27
2023-05-01T17:21:58.268Z,9.50
2023-05-01T17:24:27.618Z,9.67
2023-05-01T17:26:57.307Z,9.57
2023-05-01T17:29:26.044Z,9.17
2023-05-01T17:31:55.749Z,8.63
2023-05-01T17:34:24.417Z,9.10
2023-05-01T17:36:52.850Z,9.03
2023-05-01T17:39:22.815Z,9.20
2023-05-01T17:41:51.265Z,9.87
2023-05-01T17:44:19.638Z,14.77
2023-05-01T17:46:48.077Z,14.13
2023-05-01T17:49:17.833Z,40.20
2023-05-01T17:51:46.377Z,34.73
2023-05-01T17:54:16.755Z,27.97
2023-05-01T17:56:45.495Z,21.03
2023-05-01T17:59:14.065Z,17.53
2023-05-01T18:01:42.562Z,14.80
2023-05-01T18:04:11.239Z,12.73
2023-05-01T18:06:41.015Z,10.93
2023-05-01T18:09:10.656Z,10.03
2023-05-01T18:11:39.109Z,10.00
2023-05-01T18:14:07.471Z,10.57
2023-05-01T18:16:35.976Z,11.63
2023-05-01T18:19:04.366Z,12.67
2023-05-01T18:21:32.994Z,12.40
2023-05-01T18:24:03.618Z,12.27
2023-05-01T18:26:33.068Z,11.00
2023-05-01T18:29:02.755Z,10.43
2023-05-01T18:31:31.185Z,9.57
2023-05-01T18:33:59.701Z,9.23
2023-05-01T18:36:28.546Z,9.33
2023-05-01T18:38:57.730Z,9.73
2023-05-01T18:41:27.379Z,9.70
2023-05-01T18:43:57.998Z,9.50
2023-05-01T18:46:26.836Z,9.80
2023-05-01T18:48:55.708Z,9.90
2023-05-01T18:51:24.076Z,10.90
2023-05-01T18:53:52.414Z,9.67
2023-05-01T18:56:20.958Z,9.27
2023-05-01T18:58:50.727Z,9.63
2023-05-01T19:01:19.224Z,9.43
2023-05-01T19:03:47.979Z,10.33
2023-05-01T19:06:16.559Z,16.13
2023-05-01T19:08:45.037Z,31.17
2023-05-01T19:11:13.486Z,31.50
2023-05-01T19:13:41.810Z,27.60
2023-05-01T19:16:11.688Z,15.97
2023-05-01T19:18:40.166Z,12.53
2023-05-01T19:21:08.551Z,11.63
2023-05-01T19:23:37.884Z,14.93
2023-05-01T19:26:08.071Z,22.87
2023-05-01T19:28:38.548Z,23.20
2023-05-01T19:31:07.982Z,23.40
2023-05-01T19:33:37.696Z,25.47
2023-05-01T19:36:06.289Z,23.17
2023-05-01T19:38:34.682Z,23.53
2023-05-01T19:41:03.233Z,20.83
2023-05-01T19:43:31.610Z,17.77
2023-05-01T19:46:00.059Z,14.53
2023-05-01T19:48:28.549Z,13.00
2023-05-01T19:50:58.253Z,11.70
2023-05-01T19:53:27.968Z,11.53
2023-05-01T19:55:56.411Z,10.97
2023-05-01T19:58:26.704Z,10.60
2023-05-01T20:00:59.365Z,9.97
2023-05-01T20:03:27.857Z,13.43
2023-05-01T20:05:57.948Z,11.27
2023-05-01T20:08:26.834Z,11.93
2023-05-01T20:10:56.861Z,10.43
2023-05-01T20:13:25.310Z,10.50
2023-05-01T20:15:53.788Z,10.60
2023-05-01T20:18:22.355Z,9.63
2023-05-01T20:20:50.739Z,9.67
2023-05-01T20:23:23.442Z,8.73
2023-05-01T20:25:53.449Z,9.23
2023-05-01T20:28:21.908Z,11.20
2023-05-01T20:30:50.861Z,11.00
2023-05-01T20:33:19.306Z,11.80
2023-05-01T20:35:48.737Z,11.10
2023-05-01T20:38:17.114Z,12.10
2023-05-01T20:40:46.834Z,12.80
2023-05-01T20:43:15.273Z,11.13
2023-05-01T20:45:43.811Z,13.07
2023-05-01T20:48:12.381Z,10.47
2023-05-01T20:50:43.863Z,10.60
2023-05-01T20:53:12.340Z,9.87
2023-05-01T20:55:40.814Z,8.83
2023-05-01T20:58:10.802Z,8.70
2023-05-01T21:00:39.146Z,9.53
2023-05-01T21:03:09.698Z,9.00
2023-05-01T21:05:38.219Z,9.40
2023-05-01T21:08:06.855Z,9.50
2023-05-01T21:10:36.908Z,9.37
2023-05-01T21:13:05.737Z,9.13
2023-05-01T21:15:35.389Z,8.70
2023-05-01T21:18:03.945Z,8.90
2023-05-01T21:20:35.116Z,8.83
2023-05-01T21:23:04.728Z,8.90
2023-05-01T21:25:33.210Z,9.33
2023-05-01T21:28:03.696Z,9.40
2023-05-01T21:30:34.349Z,8.77
2023-05-01T21:33:06.563Z,9.13
2023-05-01T21:35:35.126Z,9.83
2023-05-01T21:38:05.513Z,9.40
2023-05-01T21:40:38.252Z,9.33
2023-05-01T21:43:07.702Z,9.30
2023-05-01T21:45:40.719Z,9.40
2023-05-01T21:48:10.907Z,9.07
2023-05-01T21:50:39.562Z,8.93
2023-05-01T21:53:08.527Z,9.30
2023-05-01T21:55:37.055Z,9.20
2023-05-01T21:58:05.527Z,8.93
2023-05-01T22:00:34.511Z,8.97
2023-05-01T22:03:08.864Z,8.77
2023-05-01T22:05:41.924Z,9.30
2023-05-01T22:08:10.503Z,8.60
2023-05-01T22:10:38.856Z,8.73
2023-05-01T22:13:07.328Z,9.40
2023-05-01T22:15:35.897Z,9.37
2023-05-01T22:18:04.341Z,9.90
2023-05-01T22:20:33.202Z,9.00
2023-05-01T22:23:02.860Z,9.43
2023-05-01T22:25:31.212Z,9.00
2023-05-01T22:28:01.453Z,9.33
2023-05-01T22:30:30.271Z,8.90
2023-05-01T22:32:58.816Z,8.57
2023-05-01T22:35:27.340Z,9.03
2023-05-01T22:37:55.816Z,8.90
2023-05-01T22:40:25.668Z,9.13
2023-05-01T22:42:54.034Z,8.50
2023-05-01T22:45:22.483Z,9.10
2023-05-01T22:47:50.931Z,8.70
2023-05-01T22:50:19.529Z,8.90
2023-05-01T22:52:47.984Z,9.60
2023-05-01T22:55:16.630Z,9.80
2023-05-01T22:57:46.456Z,9.00
2023-05-01T23:00:15.446Z,9.30
2023-05-01T23:02:43.919Z,9.20
2023-05-01T23:05:12.463Z,9.30
2023-05-01T23:07:41.081Z,8.87
2023-05-01T23:10:10.146Z,8.77
2023-05-01T23:12:43.919Z,9.00
2023-05-01T23:15:17.004Z,9.30
2023-05-01T23:17:45.815Z,9.37
2023-05-01T23:20:21.120Z,9.30
2023-05-01T23:22:50.244Z,9.60
2023-05-01T23:25:24.169Z,9.07
2023-05-01T23:27:54.906Z,9.70
2023-05-01T23:30:24.990Z,9.73
2023-05-01T23:32:53.405Z,9.10
2023-05-01T23:35:25.042Z,9.17
2023-05-01T23:37:54.139Z,9.43
2023-05-01T23:40:22.634Z,8.97
2023-05-01T23:42:51.389Z,9.00
2023-05-01T23:45:19.979Z,8.77
2023-05-01T23:47:49.737Z,9.27
2023-05-01T23:50:18.285Z,8.73
2023-05-01T23:52:47.114Z,8.70
2023-05-01T23:55:15.644Z,8.80
2023-05-01T23:57:44.142Z,8.63
